createdAt,value
2018-05-23T00:00:20.644Z,99.99
2018-05-23T00:01:20.572Z,99.99
2018-05-23T00:02:20.498Z,99.99
2018-05-23T00:03:20.427Z,99.99
2018-05-23T00:04:20.354Z,99.99
2018-05-23T00:05:20.277Z,99.99
2018-05-23T00:06:20.203Z,99.99
2018-05-23T00:07:20.129Z,99.99
2018-05-23T00:08:20.058Z,99.99
2018-05-23T00:09:19.981Z,99.99
2018-05-23T00:10:19.908Z,99.99
2018-05-23T00:11:19.833Z,99.99
2018-05-23T00:12:19.759Z,99.99
2018-05-23T00:13:19.687Z,99.99
2018-05-23T00:14:19.613Z,99.99
2018-05-23T00:15:19.537Z,99.99
2018-05-23T00:16:19.468Z,99.99
2018-05-23T00:17:19.390Z,99.99
2018-05-23T00:18:19.321Z,99.99
2018-05-23T00:19:19.242Z,99.99
2018-05-23T00:20:19.168Z,99.99
2018-05-23T00:21:19.094Z,99.99
2018-05-23T00:22:19.021Z,99.99
2018-05-23T00:23:18.947Z,99.99
2018-05-23T00:24:18.878Z,99.99
2018-05-23T00:25:18.800Z,99.99
2018-05-23T00:26:18.725Z,99.99
2018-05-23T00:27:18.651Z,99.99
2018-05-23T00:28:18.580Z,99.99
2018-05-23T00:29:18.584Z,99.99
2018-05-23T00:30:18.429Z,99.99
2018-05-23T00:31:18.355Z,99.99
2018-05-23T00:32:18.281Z,99.99
2018-05-23T00:33:18.208Z,99.99
2018-05-23T00:34:18.133Z,99.99
2018-05-23T00:35:18.058Z,99.99
2018-05-23T00:36:17.985Z,99.99
2018-05-23T01:05:49.962Z,99.99
2018-05-23T01:59:41.992Z,99.99
2018-05-23T02:07:33.971Z,99.99
2018-05-23T02:08:33.593Z,99.99
2018-05-23T02:47:59.059Z,99.99
2018-05-23T02:48:58.987Z,99.99
2018-05-23T02:49:58.911Z,99.99
2018-05-23T05:20:03.436Z,99.99
2018-05-23T05:22:03.289Z,99.99
2018-05-23T05:23:03.216Z,99.99
2018-05-23T08:33:10.684Z,99.99
2018-05-23T08:34:10.616Z,99.99
2018-05-23T08:35:10.543Z,99.99
2018-05-23T08:36:10.473Z,99.99
2018-05-23T08:37:10.402Z,99.99
2018-05-23T08:38:10.332Z,99.99
2018-05-23T08:39:10.263Z,99.99
2018-05-23T08:40:10.190Z,99.99
2018-05-23T08:41:10.121Z,99.99
2018-05-23T08:42:10.051Z,99.99
2018-05-23T08:43:09.982Z,99.99
2018-05-23T08:44:09.910Z,99.99
2018-05-23T08:45:09.840Z,99.99
2018-05-23T08:46:09.804Z,99.99
2018-05-23T08:47:09.701Z,99.99
2018-05-23T08:48:09.636Z,99.99
2018-05-23T08:49:09.560Z,99.99
2018-05-23T08:50:09.492Z,99.99
2018-05-23T08:51:09.421Z,99.99
2018-05-23T08:52:09.350Z,99.99
2018-05-23T08:53:09.280Z,99.99
2018-05-23T08:54:09.210Z,99.99
2018-05-23T08:55:09.139Z,99.99
2018-05-23T08:56:09.073Z,99.99
2018-05-23T08:57:09.001Z,99.99
2018-05-23T08:58:08.931Z,99.99
2018-05-23T08:59:08.862Z,99.99
2018-05-23T09:00:08.790Z,99.99
2018-05-23T09:01:08.721Z,99.99
2018-05-23T09:02:08.652Z,99.99
2018-05-23T09:03:08.583Z,99.16
2018-05-23T09:04:08.513Z,99.06
2018-05-23T09:05:08.444Z,99.88
2018-05-23T09:06:08.374Z,99.99
2018-05-23T09:07:08.304Z,99.99
2018-05-23T09:08:08.235Z,99.99
2018-05-23T09:09:08.167Z,99.64
2018-05-23T09:10:08.099Z,96.94
2018-05-23T09:11:08.029Z,97.52
2018-05-23T09:12:08.057Z,99.99
2018-05-23T09:13:07.888Z,99.99
2018-05-23T09:14:07.869Z,98.14
2018-05-23T09:15:07.749Z,98.14
2018-05-23T09:16:07.681Z,98.14
2018-05-23T09:17:07.611Z,99.69
2018-05-23T09:18:07.541Z,99.49
2018-05-23T09:19:07.474Z,98.05
2018-05-23T09:20:07.402Z,96.94
2018-05-23T09:21:07.332Z,93.15
2018-05-23T09:22:07.263Z,94.10
2018-05-23T09:23:07.194Z,95.55
2018-05-23T09:24:07.124Z,98.05
2018-05-23T09:25:07.055Z,98.24
2018-05-23T09:26:06.987Z,99.26
2018-05-23T09:27:06.917Z,94.44
2018-05-23T09:28:06.848Z,94.97
2018-05-23T09:29:06.779Z,96.32
2018-05-23T09:30:06.710Z,95.31
2018-05-23T09:31:06.639Z,96.75
2018-05-23T09:32:06.580Z,92.52
2018-05-23T09:33:06.502Z,92.80
2018-05-23T09:34:06.432Z,90.69
2018-05-23T09:35:06.369Z,89.92
2018-05-23T09:36:06.295Z,90.40
2018-05-23T09:37:06.225Z,91.21
2018-05-23T09:38:06.156Z,91.60
2018-05-23T09:39:06.177Z,91.21
2018-05-23T09:40:06.018Z,90.44
2018-05-23T09:41:05.988Z,88.61
2018-05-23T09:42:05.880Z,88.32
2018-05-23T09:43:05.813Z,86.88
2018-05-23T09:44:05.742Z,88.13
2018-05-23T09:45:05.737Z,86.88
2018-05-23T09:46:05.605Z,87.84
2018-05-23T09:47:05.542Z,87.12
2018-05-23T09:48:05.466Z,87.03
2018-05-23T09:49:05.398Z,88.76
2018-05-23T09:50:05.329Z,89.05
2018-05-23T09:51:05.260Z,90.16
2018-05-23T09:52:05.191Z,90.44
2018-05-23T09:53:05.122Z,89.09
2018-05-23T09:54:05.054Z,89.96
2018-05-23T09:55:05.020Z,90.34
2018-05-23T09:56:04.915Z,90.34
2018-05-23T09:57:04.846Z,91.99
2018-05-23T09:58:04.779Z,88.32
2018-05-23T09:59:04.710Z,88.85
2018-05-23T10:00:04.640Z,90.78
2018-05-23T10:01:04.571Z,91.16
2018-05-23T10:02:04.503Z,87.12
2018-05-23T10:03:04.435Z,86.63
2018-05-23T10:04:04.363Z,87.12
2018-05-23T10:05:04.296Z,87.06
2018-05-23T10:06:04.228Z,88.41
2018-05-23T10:07:04.161Z,90.15
2018-05-23T10:08:04.091Z,87.88
2018-05-23T10:09:04.023Z,86.00
2018-05-23T10:10:03.957Z,85.71
2018-05-23T10:11:03.885Z,85.08
2018-05-23T10:12:03.818Z,84.69
2018-05-23T10:13:03.755Z,84.27
2018-05-23T10:14:03.681Z,84.69
2018-05-23T10:15:03.614Z,84.55
2018-05-23T10:16:03.545Z,84.98
2018-05-23T10:17:03.476Z,83.53
2018-05-23T10:18:03.415Z,82.38
2018-05-23T10:19:03.342Z,82.76
2018-05-23T10:20:03.273Z,84.31
2018-05-23T10:21:03.205Z,83.92
2018-05-23T10:22:03.137Z,84.31
2018-05-23T10:23:03.070Z,84.41
2018-05-23T10:24:03.000Z,84.16
2018-05-23T10:25:02.937Z,84.11
2018-05-23T10:26:02.866Z,85.66
2018-05-23T10:27:02.799Z,85.08
2018-05-23T10:28:02.727Z,84.79
2018-05-23T10:29:02.662Z,83.73
2018-05-23T10:30:02.593Z,85.56
2018-05-23T10:31:02.524Z,84.11
2018-05-23T10:32:02.457Z,83.77
2018-05-23T10:33:02.398Z,84.31
2018-05-23T10:34:02.319Z,84.54
2018-05-23T10:35:02.254Z,82.86
2018-05-23T10:36:02.184Z,84.31
2018-05-23T10:37:02.116Z,83.92
2018-05-23T10:38:02.049Z,84.11
2018-05-23T10:39:02.073Z,84.41
2018-05-23T10:40:01.912Z,83.78
2018-05-23T10:41:01.866Z,85.23
2018-05-23T10:42:01.777Z,84.89
2018-05-23T10:43:01.708Z,84.36
2018-05-23T10:44:01.642Z,85.85
2018-05-23T10:45:01.572Z,86.52
2018-05-23T10:46:01.504Z,85.41
2018-05-23T10:47:01.435Z,83.96
2018-05-23T10:48:01.364Z,83.87
2018-05-23T10:49:01.355Z,83.19
2018-05-23T10:50:01.231Z,82.46
2018-05-23T10:51:01.168Z,80.91
2018-05-23T10:52:01.105Z,81.26
2018-05-23T10:53:01.026Z,82.13
2018-05-23T10:54:00.958Z,82.61
2018-05-23T10:55:00.892Z,82.51
2018-05-23T10:56:00.821Z,83.33
2018-05-23T10:57:00.764Z,83.42
2018-05-23T10:58:00.688Z,80.53
2018-05-23T10:59:00.622Z,81.01
2018-05-23T11:00:00.552Z,80.82
2018-05-23T11:01:00.489Z,80.30
2018-05-23T11:02:00.419Z,80.78
2018-05-23T11:03:00.449Z,81.26
2018-05-23T11:04:00.279Z,81.26
2018-05-23T11:05:00.213Z,82.56
2018-05-23T11:06:00.188Z,83.52
2018-05-23T11:07:00.077Z,81.44
2018-05-23T11:08:00.010Z,80.86
2018-05-23T11:08:59.962Z,81.34
2018-05-23T11:09:59.875Z,80.38
2018-05-23T11:10:59.808Z,80.95
2018-05-23T11:11:59.739Z,80.76
2018-05-23T11:12:59.676Z,80.47
2018-05-23T11:13:59.612Z,80.57
2018-05-23T11:14:59.591Z,80.90
2018-05-23T11:15:59.473Z,79.22
2018-05-23T11:16:59.406Z,79.41
2018-05-23T11:17:59.338Z,79.89
2018-05-23T11:18:59.273Z,79.35
2018-05-23T11:19:59.205Z,78.48
2018-05-23T11:20:59.138Z,78.38
2018-05-23T11:21:59.073Z,78.52
2018-05-23T11:22:59.008Z,78.08
2018-05-23T11:23:58.938Z,76.04
2018-05-23T11:24:58.873Z,74.21
2018-05-23T11:25:58.807Z,74.59
2018-05-23T11:26:58.743Z,75.07
2018-05-23T11:27:58.673Z,74.21
2018-05-23T11:28:58.610Z,74.21
2018-05-23T11:29:58.542Z,74.98
2018-05-23T11:30:58.477Z,75.85
2018-05-23T11:31:58.411Z,75.50
2018-05-23T11:32:58.345Z,77.63
2018-05-23T11:33:58.279Z,74.34
2018-05-23T11:34:58.216Z,73.14
2018-05-23T11:35:58.147Z,72.17
2018-05-23T11:36:58.082Z,71.98
2018-05-23T11:37:58.018Z,72.75
2018-05-23T11:38:57.953Z,72.08
2018-05-23T11:39:57.887Z,73.18
2018-05-23T11:40:57.828Z,73.69
2018-05-23T11:41:57.757Z,73.44
2018-05-23T11:42:57.693Z,70.98
2018-05-23T11:43:57.628Z,72.79
2018-05-23T11:44:57.564Z,73.04
2018-05-23T11:45:57.498Z,72.08
2018-05-23T11:46:57.434Z,74.07
2018-05-23T11:47:57.370Z,75.48
2018-05-23T11:48:57.306Z,75.27
2018-05-23T11:49:57.241Z,75.34
2018-05-23T11:50:57.176Z,70.63
2018-05-23T11:51:57.111Z,67.79
2018-05-23T11:52:57.053Z,67.53
2018-05-23T11:53:56.984Z,69.18
2018-05-23T11:54:56.920Z,69.99
2018-05-23T11:55:56.857Z,69.41
2018-05-23T11:56:56.793Z,68.92
2018-05-23T11:57:56.730Z,67.47
2018-05-23T11:58:56.666Z,66.63
2018-05-23T11:59:56.602Z,66.56
2018-05-23T12:00:56.541Z,64.85
2018-05-23T12:01:56.553Z,64.17
2018-05-23T12:02:56.416Z,66.14
2018-05-23T12:03:56.354Z,68.99
2018-05-23T12:04:56.290Z,70.15
2018-05-23T12:05:56.230Z,69.21
2018-05-23T12:06:56.168Z,71.88
2018-05-23T12:07:56.104Z,72.75
2018-05-23T12:08:56.041Z,74.40
2018-05-23T12:09:55.978Z,73.30
2018-05-23T12:10:55.917Z,72.33
2018-05-23T12:11:55.850Z,73.26
2018-05-23T12:12:55.788Z,73.46
2018-05-23T12:13:55.725Z,73.74
2018-05-23T12:14:55.662Z,74.90
2018-05-23T12:15:55.599Z,76.64
2018-05-23T12:16:55.534Z,75.48
2018-05-23T12:17:55.466Z,74.62
2018-05-23T12:18:55.403Z,72.97
2018-05-23T12:19:55.337Z,73.82
2018-05-23T12:20:55.273Z,70.83
2018-05-23T12:21:55.208Z,68.82
2018-05-23T12:22:55.144Z,66.66
2018-05-23T12:23:55.079Z,65.56
2018-05-23T12:24:55.015Z,62.68
2018-05-23T12:25:54.954Z,64.10
2018-05-23T12:26:54.888Z,60.70
2018-05-23T12:27:54.824Z,61.15
2018-05-23T12:28:54.764Z,62.26
2018-05-23T12:29:54.701Z,59.56
2018-05-23T12:30:54.640Z,59.27
2018-05-23T12:31:54.578Z,59.82
2018-05-23T12:32:54.517Z,60.41
2018-05-23T12:33:54.458Z,60.82
2018-05-23T12:34:54.397Z,59.88
2018-05-23T12:35:54.337Z,61.08
2018-05-23T12:36:54.278Z,59.82
2018-05-23T12:37:54.222Z,58.75
2018-05-23T12:38:54.160Z,60.44
2018-05-23T12:39:54.101Z,61.24
2018-05-23T12:40:54.048Z,59.05
2018-05-23T12:41:53.983Z,60.90
2018-05-23T12:42:53.925Z,62.98
2018-05-23T12:43:53.865Z,67.11
2018-05-23T12:44:53.807Z,65.01
2018-05-23T12:45:53.747Z,66.75
2018-05-23T12:46:53.761Z,68.79
2018-05-23T12:47:53.627Z,66.43
2018-05-23T12:48:53.569Z,66.92
2018-05-23T12:49:53.506Z,68.59
2018-05-23T12:50:53.446Z,69.56
2018-05-23T12:51:53.382Z,70.14
2018-05-23T12:52:53.320Z,70.68
2018-05-23T12:53:53.259Z,70.72
2018-05-23T12:54:53.197Z,69.95
2018-05-23T12:55:53.132Z,67.72
2018-05-23T12:56:53.072Z,65.85
2018-05-23T12:57:53.007Z,63.98
2018-05-23T12:58:52.945Z,62.00
2018-05-23T12:59:52.881Z,62.45
2018-05-23T13:00:52.818Z,59.36
2018-05-23T13:01:52.756Z,58.13
2018-05-23T13:02:52.695Z,57.86
2018-05-23T13:03:52.631Z,59.16
2018-05-23T13:04:52.571Z,57.26
2018-05-23T13:05:52.515Z,57.95
2018-05-23T13:06:52.453Z,55.77
2018-05-23T13:07:52.396Z,53.41
2018-05-23T13:08:52.333Z,53.63
2018-05-23T13:09:52.274Z,53.46
2018-05-23T13:10:52.218Z,53.09
2018-05-23T13:11:52.156Z,52.36
2018-05-23T13:12:52.100Z,52.51
2018-05-23T13:13:52.043Z,51.09
2018-05-23T13:14:51.985Z,52.48
2018-05-23T13:15:51.927Z,52.68
2018-05-23T13:16:51.870Z,52.51
2018-05-23T13:17:51.816Z,53.39
2018-05-23T13:18:51.757Z,53.85
2018-05-23T13:19:51.712Z,56.99
2018-05-23T13:20:51.794Z,57.61
2018-05-23T13:21:51.588Z,59.69
2018-05-23T13:22:51.532Z,58.69
2018-05-23T13:23:51.477Z,61.35
2018-05-23T13:24:51.417Z,63.43
2018-05-23T13:25:51.418Z,63.98
2018-05-23T13:26:51.303Z,63.59
2018-05-23T13:27:51.243Z,64.27
2018-05-23T13:28:51.183Z,63.78
2018-05-23T13:29:51.124Z,64.34
2018-05-23T13:30:51.065Z,63.85
2018-05-23T13:31:51.054Z,64.92
2018-05-23T13:32:50.944Z,63.56
2018-05-23T13:33:50.883Z,63.75
2018-05-23T13:34:50.825Z,63.85
2018-05-23T13:35:50.764Z,62.98
2018-05-23T13:36:50.701Z,65.01
2018-05-23T13:37:50.639Z,66.08
2018-05-23T13:38:50.600Z,68.79
2018-05-23T13:39:50.513Z,68.89
2018-05-23T13:40:50.453Z,68.08
2018-05-23T13:41:50.390Z,68.02
2018-05-23T13:42:50.327Z,64.82
2018-05-23T13:43:50.264Z,67.34
2018-05-23T13:44:50.205Z,70.21
2018-05-23T13:45:50.141Z,69.34
2018-05-23T13:46:50.076Z,69.15
2018-05-23T13:47:50.010Z,69.73
2018-05-23T13:48:49.948Z,70.60
2018-05-23T13:49:49.885Z,70.70
2018-05-23T13:50:49.822Z,72.24
2018-05-23T13:51:49.907Z,71.60
2018-05-23T13:52:49.693Z,69.85
2018-05-23T13:53:49.631Z,69.37
2018-05-23T13:54:49.566Z,69.27
2018-05-23T13:55:49.502Z,70.25
2018-05-23T13:56:49.438Z,68.89
2018-05-23T13:57:49.374Z,68.40
2018-05-23T13:58:49.310Z,70.50
2018-05-23T13:59:49.246Z,69.34
2018-05-23T14:00:49.185Z,68.02
2018-05-23T14:01:49.172Z,67.63
2018-05-23T14:02:49.054Z,67.53
2018-05-23T14:03:48.989Z,68.34
2018-05-23T14:04:48.927Z,68.82
2018-05-23T14:05:48.861Z,69.06
2018-05-23T14:06:48.796Z,67.31
2018-05-23T14:07:48.732Z,65.69
2018-05-23T14:08:48.669Z,63.88
2018-05-23T14:09:48.618Z,64.65
2018-05-23T14:10:48.542Z,60.97
2018-05-23T14:11:48.476Z,62.26
2018-05-23T14:12:48.414Z,60.12
2018-05-23T14:13:48.350Z,60.97
2018-05-23T14:14:48.285Z,60.97
2018-05-23T14:15:48.223Z,60.28
2018-05-23T14:16:48.159Z,63.98
2018-05-23T14:17:48.096Z,60.45
2018-05-23T14:18:48.033Z,60.74
2018-05-23T14:19:47.969Z,58.12
2018-05-23T14:20:47.907Z,59.26
2018-05-23T14:21:47.842Z,57.90
2018-05-23T14:22:47.779Z,57.64
2018-05-23T14:23:47.717Z,59.28
2018-05-23T14:24:47.652Z,59.09
2018-05-23T14:25:47.587Z,57.86
2018-05-23T14:26:47.527Z,58.34
2018-05-23T14:27:47.464Z,58.15
2018-05-23T14:28:47.395Z,59.64
2018-05-23T14:29:47.332Z,60.41
2018-05-23T14:30:47.268Z,61.48
2018-05-23T14:31:47.204Z,62.91
2018-05-23T14:32:47.139Z,63.65
2018-05-23T14:33:47.077Z,64.82
2018-05-23T14:34:47.013Z,67.02
2018-05-23T14:35:47.018Z,66.72
2018-05-23T14:36:46.884Z,67.31
2018-05-23T14:37:46.820Z,67.76
2018-05-23T14:38:46.756Z,66.50
2018-05-23T14:39:46.692Z,61.49
2018-05-23T14:40:46.627Z,60.01
2018-05-23T14:41:46.563Z,60.92
2018-05-23T14:42:46.498Z,62.63
2018-05-23T14:43:46.467Z,63.56
2018-05-23T14:44:46.373Z,63.56
2018-05-23T14:45:46.302Z,63.66
2018-05-23T14:46:46.237Z,64.40
2018-05-23T14:47:46.175Z,64.40
2018-05-23T14:48:46.105Z,63.79
2018-05-23T14:49:46.039Z,65.91
2018-05-23T14:50:45.973Z,65.72
2018-05-23T14:51:45.906Z,67.55
2018-05-23T14:52:45.840Z,66.17
2018-05-23T14:53:45.771Z,67.81
2018-05-23T14:54:45.706Z,70.19
2018-05-23T14:55:45.637Z,76.71
2018-05-23T14:56:45.572Z,81.16
2018-05-23T14:57:45.505Z,88.33
2018-05-23T14:58:45.436Z,91.61
2018-05-23T14:59:45.368Z,96.56
2018-05-23T15:00:45.300Z,99.99
2018-05-23T15:01:45.231Z,99.99
2018-05-23T15:02:45.163Z,99.99
2018-05-23T15:03:45.094Z,99.99
2018-05-23T15:04:45.026Z,99.99
2018-05-23T15:05:44.955Z,99.99
2018-05-23T15:06:44.886Z,99.99
2018-05-23T15:07:44.813Z,99.99
2018-05-23T15:08:44.746Z,99.99
2018-05-23T15:09:44.676Z,99.99
2018-05-23T15:10:44.605Z,99.99
2018-05-23T15:11:44.534Z,99.99
2018-05-23T15:12:44.465Z,99.99
2018-05-23T15:13:44.395Z,99.99
2018-05-23T15:14:44.333Z,99.99
2018-05-23T15:15:44.252Z,99.99
2018-05-23T15:16:44.182Z,99.99
2018-05-23T15:17:44.111Z,99.99
2018-05-23T15:18:44.044Z,99.99
2018-05-23T15:19:44.060Z,99.99
2018-05-23T15:20:43.898Z,99.99
2018-05-23T15:21:43.826Z,99.99
2018-05-23T15:22:43.756Z,99.99
2018-05-23T15:23:43.687Z,99.99
2018-05-23T15:24:43.611Z,99.99
2018-05-23T15:25:43.540Z,99.99
2018-05-23T15:26:43.470Z,99.99
2018-05-23T15:27:43.397Z,99.99
2018-05-23T15:28:43.325Z,99.99
2018-05-23T15:29:43.254Z,99.99
2018-05-23T15:30:43.182Z,99.99
2018-05-23T15:31:43.111Z,99.99
2018-05-23T15:32:43.037Z,99.99
2018-05-23T15:33:42.968Z,99.99
2018-05-23T15:34:42.896Z,99.99
2018-05-23T15:35:42.858Z,99.99
2018-05-23T15:36:42.752Z,99.99
2018-05-23T15:37:42.679Z,99.99
2018-05-23T15:38:42.609Z,99.99
2018-05-23T15:39:42.537Z,99.99
2018-05-23T15:40:42.466Z,99.99
2018-05-23T15:41:42.423Z,99.99
2018-05-23T15:42:42.324Z,99.99
2018-05-23T15:43:42.251Z,99.99
2018-05-23T15:44:42.179Z,99.99
2018-05-23T15:45:42.107Z,99.99
2018-05-23T15:46:42.037Z,99.99
2018-05-23T15:47:41.963Z,99.99
2018-05-23T15:48:41.891Z,99.99
2018-05-23T15:49:41.821Z,99.99
2018-05-23T15:50:41.748Z,99.99
2018-05-23T15:51:41.677Z,99.99
2018-05-23T15:52:41.604Z,99.99
2018-05-23T15:53:41.532Z,99.99
2018-05-23T15:54:41.462Z,99.99
2018-05-23T15:55:41.389Z,99.99
2018-05-23T15:56:41.318Z,99.99
2018-05-23T15:57:41.246Z,99.99
2018-05-23T15:58:41.174Z,99.99
2018-05-23T15:59:41.105Z,99.99
2018-05-23T16:00:41.031Z,99.99
2018-05-23T16:01:40.961Z,99.99
2018-05-23T16:02:40.889Z,99.99
2018-05-23T16:03:40.816Z,99.99
2018-05-23T16:04:40.744Z,99.99
2018-05-23T16:05:40.674Z,99.99
2018-05-23T16:06:40.611Z,99.99
2018-05-23T16:07:40.529Z,99.99
2018-05-23T16:08:40.460Z,99.99
2018-05-23T16:09:40.387Z,99.99
2018-05-23T16:10:40.317Z,99.99
2018-05-23T16:11:40.243Z,99.99
2018-05-23T16:12:40.171Z,99.99
2018-05-23T16:13:40.102Z,99.99
2018-05-23T16:14:40.095Z,99.99
2018-05-23T16:15:39.957Z,99.99
2018-05-23T16:16:39.886Z,99.99
2018-05-23T16:17:39.816Z,99.99
2018-05-23T16:18:39.744Z,99.99
2018-05-23T16:19:39.672Z,99.99
2018-05-23T16:20:39.660Z,99.99
2018-05-23T16:21:39.531Z,99.99
2018-05-23T16:22:39.459Z,99.99
2018-05-23T16:23:39.386Z,99.99
2018-05-23T16:24:39.348Z,99.99
2018-05-23T16:25:39.245Z,99.99
2018-05-23T16:26:39.175Z,99.99
2018-05-23T16:27:39.102Z,99.99
2018-05-23T16:28:39.034Z,99.99
2018-05-23T16:29:38.961Z,99.99
2018-05-23T16:30:38.890Z,99.99
2018-05-23T16:31:38.817Z,99.99
2018-05-23T16:32:38.746Z,99.99
2018-05-23T16:33:38.678Z,99.99
2018-05-23T16:34:38.604Z,99.99
2018-05-23T16:35:38.532Z,99.99
2018-05-23T16:36:38.461Z,99.99
2018-05-23T16:37:38.390Z,99.99
2018-05-23T16:38:38.319Z,99.99
2018-05-23T16:39:38.248Z,99.99
2018-05-23T16:40:38.177Z,99.99
2018-05-23T16:41:38.105Z,99.99
2018-05-23T16:42:38.035Z,99.99
2018-05-23T16:43:37.962Z,99.99
2018-05-23T16:44:37.892Z,99.99
2018-05-23T16:45:37.822Z,99.99
2018-05-23T16:46:37.750Z,99.99
2018-05-23T16:47:37.678Z,99.99
2018-05-23T16:48:37.608Z,99.99
2018-05-23T16:49:37.537Z,99.99
2018-05-23T16:50:37.466Z,99.99
2018-05-23T16:51:37.395Z,99.99
2018-05-23T16:52:37.324Z,99.99
2018-05-23T16:53:37.252Z,99.99
2018-05-23T16:54:37.182Z,99.99
2018-05-23T16:55:37.114Z,99.99
2018-05-23T16:56:37.041Z,99.99
2018-05-23T16:57:36.969Z,99.99
2018-05-23T16:58:36.898Z,99.99
2018-05-23T16:59:36.827Z,99.99
2018-05-23T17:00:36.756Z,99.99
2018-05-23T17:01:36.686Z,99.99
2018-05-23T17:02:36.613Z,99.99
2018-05-23T17:03:36.543Z,99.99
2018-05-23T17:04:36.473Z,99.99
2018-05-23T17:05:36.401Z,99.99
2018-05-23T17:06:36.329Z,99.99
2018-05-23T17:07:36.258Z,99.99
2018-05-23T17:08:36.191Z,99.99
2018-05-23T17:09:36.122Z,99.99
2018-05-23T17:10:36.047Z,99.99
2018-05-23T17:11:36.041Z,99.99
2018-05-23T17:12:35.950Z,99.99
2018-05-23T17:13:35.833Z,99.99
2018-05-23T17:14:35.762Z,99.99
2018-05-23T17:15:35.694Z,99.99
2018-05-23T17:16:35.624Z,99.99
2018-05-23T17:17:35.556Z,99.99
2018-05-23T17:18:35.476Z,99.99
2018-05-23T17:19:35.406Z,99.99
2018-05-23T17:20:35.338Z,99.99
2018-05-23T17:21:35.264Z,99.99
2018-05-23T17:22:35.193Z,99.99
2018-05-23T17:23:35.123Z,99.99
2018-05-23T17:24:35.050Z,99.99
2018-05-23T17:25:34.979Z,99.99
2018-05-23T17:26:34.907Z,99.99
2018-05-23T17:27:34.837Z,99.99
2018-05-23T17:28:34.766Z,99.99
2018-05-23T17:29:34.696Z,99.99
2018-05-23T17:30:34.624Z,99.99
2018-05-23T17:31:34.552Z,99.99
2018-05-23T17:32:34.481Z,99.99
2018-05-23T17:33:34.500Z,99.99
2018-05-23T17:34:34.340Z,99.99
2018-05-23T17:35:34.267Z,99.99
2018-05-23T17:36:34.201Z,99.99
2018-05-23T17:37:34.125Z,99.99
2018-05-23T17:38:34.057Z,99.99
2018-05-23T17:39:33.984Z,99.99
2018-05-23T17:40:33.913Z,99.99
2018-05-23T17:41:33.841Z,99.99
2018-05-23T17:42:33.772Z,99.99
2018-05-23T17:43:33.699Z,99.99
2018-05-23T17:44:33.629Z,99.99
2018-05-23T17:45:33.558Z,99.99
2018-05-23T17:46:33.487Z,99.99
2018-05-23T17:47:33.416Z,99.99
2018-05-23T17:48:33.344Z,99.99
2018-05-23T17:49:33.273Z,99.99
2018-05-23T17:50:33.207Z,99.99
2018-05-23T17:51:33.130Z,99.99
2018-05-23T17:52:33.060Z,99.99
2018-05-23T17:53:32.989Z,99.99
2018-05-23T17:54:32.921Z,99.99
2018-05-23T17:55:32.847Z,99.99
2018-05-23T17:56:32.780Z,99.99
2018-05-23T17:57:32.709Z,99.99
2018-05-23T17:58:32.634Z,99.99
2018-05-23T17:59:32.562Z,99.99
2018-05-23T18:00:32.496Z,99.99
2018-05-23T18:01:32.422Z,99.99
2018-05-23T18:02:32.349Z,99.99
2018-05-23T18:03:32.277Z,99.99
2018-05-23T18:04:32.210Z,99.99
2018-05-23T18:05:32.137Z,99.99
2018-05-23T18:06:32.067Z,99.99
2018-05-23T18:07:31.992Z,99.99
2018-05-23T18:08:31.925Z,99.99
2018-05-23T18:09:31.850Z,99.99
2018-05-23T18:10:31.778Z,99.99
2018-05-23T18:11:31.705Z,99.99
2018-05-23T18:12:31.636Z,99.99
2018-05-23T18:13:31.566Z,99.99
2018-05-23T18:14:31.496Z,99.99
2018-05-23T18:15:31.425Z,99.99
2018-05-23T18:16:31.352Z,99.99
2018-05-23T18:17:31.280Z,99.99
2018-05-23T18:18:31.209Z,99.99
2018-05-23T18:19:31.137Z,99.99
2018-05-23T18:20:31.084Z,99.99
2018-05-23T18:21:30.999Z,99.99
2018-05-23T18:22:30.926Z,99.99
2018-05-23T18:23:30.956Z,99.99
2018-05-23T18:24:30.780Z,99.99
2018-05-23T18:25:30.712Z,99.99
2018-05-23T18:26:30.641Z,99.99
2018-05-23T18:27:30.570Z,99.99
2018-05-23T18:28:30.520Z,99.99
2018-05-23T18:29:30.522Z,99.99
2018-05-23T18:30:30.354Z,99.99
2018-05-23T18:31:30.283Z,99.99
2018-05-23T18:32:30.208Z,99.99
2018-05-23T18:33:30.141Z,99.99
2018-05-23T18:34:30.066Z,99.99
2018-05-23T18:35:29.993Z,99.99
2018-05-23T18:36:29.923Z,99.99
2018-05-23T18:37:29.852Z,99.99
2018-05-23T18:38:29.780Z,99.99
2018-05-23T18:39:29.706Z,99.99
2018-05-23T18:40:29.636Z,99.99
2018-05-23T18:41:29.566Z,99.99
2018-05-23T18:42:29.495Z,99.99
2018-05-23T18:43:29.528Z,99.99
2018-05-23T18:44:29.349Z,99.99
2018-05-23T18:45:29.278Z,99.99
2018-05-23T18:46:29.208Z,99.99
2018-05-23T18:47:29.138Z,99.99
2018-05-23T18:48:29.070Z,99.99
2018-05-23T18:49:29.052Z,99.99
2018-05-23T18:50:28.921Z,99.99
2018-05-23T18:51:28.849Z,99.99
2018-05-23T18:52:28.777Z,99.99
2018-05-23T18:53:28.705Z,99.99
2018-05-23T18:54:28.677Z,99.99
2018-05-23T18:55:28.562Z,99.99
2018-05-23T18:56:28.490Z,99.99
2018-05-23T18:57:28.419Z,99.99
2018-05-23T18:58:28.348Z,99.99
2018-05-23T18:59:28.275Z,99.99
2018-05-23T19:00:28.203Z,99.99
2018-05-23T19:01:28.134Z,99.99
2018-05-23T19:02:28.061Z,99.99
2018-05-23T19:03:27.989Z,99.99
2018-05-23T19:04:27.916Z,99.99
2018-05-23T19:05:27.938Z,99.99
2018-05-23T19:06:27.774Z,99.99
2018-05-23T19:07:27.702Z,99.99
2018-05-23T19:08:27.628Z,99.99
2018-05-23T19:09:27.557Z,99.99
2018-05-23T19:10:27.484Z,99.99
2018-05-23T19:11:27.414Z,99.99
2018-05-23T19:12:27.341Z,99.99
2018-05-23T19:13:27.269Z,99.99
2018-05-23T19:14:27.197Z,99.99
2018-05-23T19:15:27.124Z,99.99
2018-05-23T19:16:27.053Z,99.99
2018-05-23T19:17:26.987Z,99.99
2018-05-23T19:18:26.910Z,99.99
2018-05-23T19:19:26.900Z,99.99
2018-05-23T19:20:26.769Z,99.99
2018-05-23T19:21:26.693Z,99.99
2018-05-23T19:22:26.621Z,99.99
2018-05-23T19:23:26.549Z,99.99
2018-05-23T19:24:26.480Z,99.99
2018-05-23T19:25:26.405Z,99.99
2018-05-23T19:26:26.331Z,99.99
2018-05-23T19:27:26.259Z,99.99
2018-05-23T19:28:26.186Z,99.99
2018-05-23T19:29:26.116Z,99.99
2018-05-23T19:30:26.044Z,99.99
2018-05-23T19:31:25.974Z,99.99
2018-05-23T19:32:25.900Z,99.99
2018-05-23T19:33:25.826Z,99.99
2018-05-23T19:34:25.754Z,99.99
2018-05-23T19:35:25.684Z,99.99
2018-05-23T19:36:25.611Z,99.99
2018-05-23T19:37:25.537Z,99.99
2018-05-23T19:38:25.467Z,99.99
2018-05-23T19:39:25.393Z,99.99
2018-05-23T19:40:25.320Z,99.99
2018-05-23T19:41:25.248Z,99.99
2018-05-23T19:42:25.175Z,99.99
2018-05-23T19:43:25.102Z,99.99
2018-05-23T19:44:25.032Z,99.99
2018-05-23T19:45:24.958Z,99.99
2018-05-23T19:46:24.885Z,99.99
2018-05-23T19:47:24.884Z,99.99
2018-05-23T19:48:24.738Z,99.99
2018-05-23T19:49:24.667Z,99.99
2018-05-23T19:50:24.596Z,99.99
2018-05-23T19:51:24.520Z,99.99
2018-05-23T19:52:24.450Z,99.99
2018-05-23T19:53:24.380Z,99.99
2018-05-23T19:54:24.305Z,99.99
2018-05-23T19:55:24.233Z,99.99
2018-05-23T19:56:24.159Z,99.99
2018-05-23T19:57:24.088Z,99.99
2018-05-23T19:58:24.018Z,99.99
2018-05-23T19:59:23.940Z,99.99
2018-05-23T20:00:23.869Z,99.99
2018-05-23T20:01:23.796Z,99.99
2018-05-23T20:02:23.728Z,99.99
2018-05-23T20:03:23.651Z,99.99
2018-05-23T20:04:23.579Z,99.99
2018-05-23T20:05:23.512Z,99.99
2018-05-23T20:06:23.434Z,99.99
2018-05-23T20:07:23.361Z,99.99
2018-05-23T20:08:23.410Z,99.99
2018-05-23T20:09:23.216Z,99.99
2018-05-23T20:10:23.142Z,99.99
2018-05-23T20:11:23.070Z,99.99
2018-05-23T20:12:22.998Z,99.99
2018-05-23T20:13:22.925Z,99.99
2018-05-23T20:14:22.869Z,99.99
2018-05-23T20:15:22.780Z,99.99
2018-05-23T20:16:22.707Z,99.99
2018-05-23T20:17:22.635Z,99.99
2018-05-23T20:18:22.563Z,99.99
2018-05-23T20:19:22.489Z,99.99
2018-05-23T20:20:22.421Z,99.99
2018-05-23T20:21:22.345Z,99.99
2018-05-23T20:22:22.270Z,99.99
2018-05-23T20:23:22.199Z,99.99
2018-05-23T20:24:22.126Z,99.99
2018-05-23T20:25:22.054Z,99.99
2018-05-23T20:26:21.982Z,99.99
2018-05-23T20:27:21.908Z,99.99
2018-05-23T20:28:21.836Z,99.99
2018-05-23T20:29:21.786Z,99.99
2018-05-23T20:30:21.693Z,99.99
2018-05-23T20:31:21.618Z,99.99
2018-05-23T20:32:21.546Z,99.99
2018-05-23T20:33:21.474Z,99.99
2018-05-23T20:34:21.402Z,99.99
2018-05-23T20:35:21.414Z,99.99
2018-05-23T20:36:21.256Z,99.99
2018-05-23T20:37:21.183Z,99.99